Time;durP1;ratioP1;P1;durP2;ratioP2;P2;SDS_P1;SDS_P2;PMS_P1;PMS_P2;Temp;Humidity;BMP_temperature;BMP_pressure;BME280_temperature;BME280_humidity;BME280_pressure;Samples;Min_cycle;Max_cycle;Signal;HPM_P1;HPM_P2
2022/03/22 06:16:05;;;;;;;;;;;;;;;13.78;32.77;100198.66;5715927;23;20325;-65
2022/03/22 06:18:33;;;;;;;;;;;;;;;14.33;31.96;100203.69;4827039;29;19956;-68
2022/03/22 06:21:02;;;;;;;;;;;;;;;15.62;30.44;100205.13;4811496;29;20372;-67
2022/03/22 06:23:29;;;;;;;;;;;;;;;17.30;28.89;100196.41;4827573;29;20245;-68
2022/03/22 06:25:57;;;;;;;;;;;;;;;18.69;26.78;100204.81;4827669;29;19954;-68
2022/03/22 06:28:24;;;;;;;;;;;;;;;20.17;24.67;100214.78;4827338;29;19957;-65
2022/03/22 06:30:51;;;;;;;;;;;;;;;21.23;23.12;100211.03;4815287;29;19959;-66
2022/03/22 06:33:22;;;;;;;;;;;;;;;22.03;22.62;100220.59;4816647;29;19951;-66
2022/03/22 06:35:50;;;;;;;;;;;;;;;23.10;21.51;100217.63;4809563;29;19977;-66
2022/03/22 06:38:18;;;;;;;;;;;;;;;23.81;20.92;100219.06;4813516;29;20373;-66
2022/03/22 06:40:47;;;;;;;;;;;;;;;24.64;20.32;100228.97;4811791;29;20243;-66
2022/03/22 06:43:15;;;;;;;;;;;;;;;25.00;19.43;100226.84;4811848;29;19955;-66
2022/03/22 06:45:44;;;;;;;;;;;;;;;24.92;19.53;100234.00;4817440;29;19945;-66
2022/03/22 06:48:12;;;;;;;;;;;;;;;24.32;19.64;100238.34;4817083;29;19951;-66
2022/03/22 06:50:42;;;;;;;;;;;;;;;23.36;20.24;100238.75;4813227;29;19959;-66
2022/03/22 06:53:10;;;;;;;;;;;;;;;22.34;20.70;100244.16;4815082;29;19949;-66
2022/03/22 06:55:38;;;;;;;;;;;;;;;21.39;21.33;100240.53;4820049;29;19949;-66
2022/03/22 06:58:06;;;;;;;;;;;;;;;20.45;22.36;100236.53;4814521;29;19957;-66
2022/03/22 07:00:33;;;;;;;;;;;;;;;19.70;23.53;100241.84;4808722;29;19956;-66
2022/03/22 07:03:03;;;;;;;;;;;;;;;19.02;23.61;100232.69;4807117;29;19975;-66
2022/03/22 07:05:30;;;;;;;;;;;;;;;18.49;24.26;100234.75;4807998;29;19955;-66
2022/03/22 07:07:58;;;;;;;;;;;;;;;17.93;24.68;100235.47;4834234;29;20401;-66
2022/03/22 07:10:26;;;;;;;;;;;;;;;17.26;25.76;100242.84;4839032;29;19963;-66
2022/03/22 07:12:54;;;;;;;;;;;;;;;16.88;26.77;100235.75;4831512;29;19947;-66
2022/03/22 07:15:23;;;;;;;;;;;;;;;16.81;26.70;100235.69;4829647;29;19957;-66
2022/03/22 07:17:52;;;;;;;;;;;;;;;16.35;27.53;100233.28;4812761;29;20000;-66
2022/03/22 07:20:20;;;;;;;;;;;;;;;15.77;27.58;100240.78;4813134;29;19953;-66
2022/03/22 07:22:48;;;;;;;;;;;;;;;15.37;28.47;100238.63;4807701;29;19966;-66
2022/03/22 07:25:16;;;;;;;;;;;;;;;15.65;28.63;100241.00;4807499;29;20254;-66
2022/03/22 07:27:43;;;;;;;;;;;;;;;15.85;29.63;100239.63;4824567;29;19955;-66
2022/03/22 07:30:11;;;;;;;;;;;;;;;15.48;30.69;100239.59;4821940;29;19956;-67
2022/03/22 07:32:39;;;;;;;;;;;;;;;15.28;29.38;100238.13;4811531;29;19952;-66
2022/03/22 07:35:07;;;;;;;;;;;;;;;14.81;31.97;100241.47;4810572;29;19947;-66
2022/03/22 07:37:35;;;;;;;;;;;;;;;14.34;31.91;100235.47;4819690;29;20256;-66
2022/03/22 07:40:07;;;;;;;;;;;;;;;14.92;31.23;100235.97;4818372;29;19952;-66
2022/03/22 07:42:35;;;;;;;;;;;;;;;15.22;29.66;100244.44;4824047;29;19971;-66
2022/03/22 07:45:05;;;;;;;;;;;;;;;14.69;30.49;100241.69;4813827;29;19950;-66
2022/03/22 07:47:33;;;;;;;;;;;;;;;14.04;33.74;100245.72;4803348;29;19952;-66
2022/03/22 07:53:00;;;;;;;;;;;;;;;14.67;31.69;100246.84;4810914;29;19950;-66
2022/03/22 07:55:29;;;;;;;;;;;;;;;14.97;30.67;100253.38;4810819;29;20367;-66
2022/03/22 07:58:00;;;;;;;;;;;;;;;14.47;34.75;100253.78;4812744;29;20357;-66
2022/03/22 08:00:29;;;;;;;;;;;;;;;14.79;34.09;100245.84;4817251;29;19959;-66
2022/03/22 08:02:58;;;;;;;;;;;;;;;15.07;32.08;100241.44;4814801;29;19983;-66
2022/03/22 08:05:26;;;;;;;;;;;;;;;14.72;32.82;100248.56;4817454;29;19951;-66
2022/03/22 08:07:54;;;;;;;;;;;;;;;14.28;36.50;100248.19;4822359;29;20658;-66
2022/03/22 08:10:22;;;;;;;;;;;;;;;14.20;35.64;100244.44;4821727;29;20392;-66
2022/03/22 08:12:49;;;;;;;;;;;;;;;14.14;34.78;100253.56;4818090;29;19958;-66
2022/03/22 08:15:17;;;;;;;;;;;;;;;14.36;34.57;100250.78;4817547;29;19952;-66
2022/03/22 08:17:45;;;;;;;;;;;;;;;14.40;34.47;100245.22;4816958;29;19976;-66
2022/03/22 08:20:13;;;;;;;;;;;;;;;14.32;34.21;100249.91;4816146;29;20250;-65
2022/03/22 08:22:50;;;;;;;;;;;;;;;14.29;34.65;100247.00;4817402;29;19968;-66
2022/03/22 08:25:27;;;;;;;;;;;;;;;13.78;36.30;100250.09;4819061;29;19954;-66
2022/03/22 08:27:55;;;;;;;;;;;;;;;13.86;35.98;100247.41;4822360;29;19963;-66
2022/03/22 08:30:23;;;;;;;;;;;;;;;13.57;37.80;100249.66;4811128;29;19954;-66
2022/03/22 08:32:52;;;;;;;;;;;;;;;13.67;37.77;100253.84;4810391;29;19950;-66
2022/03/22 08:35:20;;;;;;;;;;;;;;;14.01;37.35;100252.91;4810609;29;19959;-66
2022/03/22 08:37:47;;;;;;;;;;;;;;;14.09;37.30;100242.59;4820945;29;19950;-66
2022/03/22 08:40:15;;;;;;;;;;;;;;;14.21;37.63;100240.44;4821193;29;20223;-66
2022/03/22 08:42:43;;;;;;;;;;;;;;;14.20;36.99;100243.63;4817756;29;19971;-66
2022/03/22 08:45:14;;;;;;;;;;;;;;;13.67;38.09;100251.88;4819358;29;19968;-66
2022/03/22 08:47:42;;;;;;;;;;;;;;;13.44;42.83;100245.38;4816111;29;19976;-66
2022/03/22 08:50:10;;;;;;;;;;;;;;;13.08;47.29;100243.78;4819723;29;19961;-66
2022/03/22 08:52:38;;;;;;;;;;;;;;;13.00;45.44;100241.16;4817774;29;20342;-66
2022/03/22 08:55:07;;;;;;;;;;;;;;;12.61;50.62;100234.66;4818128;29;19954;-66
2022/03/22 08:57:35;;;;;;;;;;;;;;;12.36;51.69;100245.25;4818225;29;19952;-66
2022/03/22 09:00:05;;;;;;;;;;;;;;;12.52;49.72;100243.25;4802209;29;19953;-66
2022/03/22 09:02:36;;;;;;;;;;;;;;;12.09;51.01;100242.53;4818520;29;19976;-66
2022/03/22 09:07:51;;;;;;;;;;;;;;;11.93;48.91;100250.13;4825623;29;20293;-66
2022/03/22 09:10:23;;;;;;;;;;;;;;;12.14;52.15;100251.50;4822422;29;19953;-66
2022/03/22 09:12:50;;;;;;;;;;;;;;;11.88;49.85;100253.19;4809641;29;19959;-66
2022/03/22 09:15:19;;;;;;;;;;;;;;;11.65;48.56;100264.13;4811540;29;19957;-66
2022/03/22 09:17:46;;;;;;;;;;;;;;;11.53;48.80;100259.41;4819052;29;20358;-66
2022/03/22 09:20:15;;;;;;;;;;;;;;;11.91;49.53;100256.06;4819099;29;19957;-66
2022/03/22 09:22:43;;;;;;;;;;;;;;;11.78;49.67;100254.53;4818354;29;19984;-66
2022/03/22 09:25:11;;;;;;;;;;;;;;;11.01;52.10;100265.06;4818964;29;20335;-66
2022/03/22 09:27:41;;;;;;;;;;;;;;;11.01;53.12;100262.25;4818302;29;19949;-66
2022/03/22 09:30:09;;;;;;;;;;;;;;;11.42;55.26;100260.28;4818882;29;20370;-66
2022/03/22 09:32:37;;;;;;;;;;;;;;;11.45;51.45;100262.34;4818895;29;20244;-66
2022/03/22 09:35:07;;;;;;;;;;;;;;;11.29;52.68;100262.31;4816173;29;19963;-66
2022/03/22 09:37:34;;;;;;;;;;;;;;;11.34;52.00;100264.84;4828422;29;19957;-66
2022/03/22 09:40:02;;;;;;;;;;;;;;;11.06;53.73;100262.00;4827064;29;19962;-66
2022/03/22 09:42:30;;;;;;;;;;;;;;;11.25;53.91;100255.75;4827265;29;20401;-66
2022/03/22 09:45:01;;;;;;;;;;;;;;;11.00;54.20;100255.00;4827687;29;19953;-66
2022/03/22 09:47:29;;;;;;;;;;;;;;;10.60;53.44;100256.94;4827440;29;19955;-66
2022/03/22 09:49:57;;;;;;;;;;;;;;;10.69;52.72;100248.41;4811651;29;19982;-66
2022/03/22 09:52:24;;;;;;;;;;;;;;;10.86;52.80;100265.78;4828194;29;19956;-66
2022/03/22 09:54:52;;;;;;;;;;;;;;;10.77;51.43;100253.09;4834377;29;19959;-65
2022/03/22 09:57:19;;;;;;;;;;;;;;;11.04;56.02;100249.53;4827065;29;20373;-66
2022/03/22 09:59:46;;;;;;;;;;;;;;;11.38;55.96;100253.75;4844925;29;19950;-66
2022/03/22 10:02:13;;;;;;;;;;;;;;;11.17;51.01;100249.13;4830805;29;19991;-65
2022/03/22 10:04:44;;;;;;;;;;;;;;;11.49;55.32;100250.06;4815916;29;19951;-66
2022/03/22 10:07:18;;;;;;;;;;;;;;;11.21;52.27;100249.25;4825305;29;19965;-66
2022/03/22 10:10:03;;;;;;;;;;;;;;;11.54;49.68;100246.22;4818458;29;19956;-66
2022/03/22 10:12:33;;;;;;;;;;;;;;;11.42;51.88;100249.06;4813877;29;19953;-66
2022/03/22 10:15:06;;;;;;;;;;;;;;;11.39;50.89;100242.19;4814848;29;20354;-66
2022/03/22 10:17:33;;;;;;;;;;;;;;;11.63;53.99;100246.88;4817072;29;19975;-65
2022/03/22 10:20:05;;;;;;;;;;;;;;;11.67;48.52;100258.97;4822574;29;19968;-66
2022/03/22 10:22:34;;;;;;;;;;;;;;;11.06;51.56;100250.81;4825069;29;20288;-66
2022/03/22 10:25:05;;;;;;;;;;;;;;;11.47;50.57;100249.63;4811239;29;19954;-66
2022/03/22 10:27:34;;;;;;;;;;;;;;;11.29;48.33;100245.50;4809255;29;19952;-66
2022/03/22 10:30:21;;;;;;;;;;;;;;;11.02;45.68;100247.09;4820863;29;19961;-66
2022/03/22 10:32:52;;;;;;;;;;;;;;;11.03;46.49;100242.28;4823152;29;19959;-65
2022/03/22 10:35:24;;;;;;;;;;;;;;;11.34;46.14;100241.63;4813683;29;19956;-66
2022/03/22 10:37:54;;;;;;;;;;;;;;;11.31;48.16;100240.34;4814082;29;20340;-66
2022/03/22 10:40:29;;;;;;;;;;;;;;;11.41;43.75;100241.84;4818262;29;19952;-66
2022/03/22 10:43:16;;;;;;;;;;;;;;;11.28;43.64;100235.47;4810861;29;19969;-66
2022/03/22 10:45:48;;;;;;;;;;;;;;;11.44;42.30;100241.94;4817716;29;19955;-66
2022/03/22 10:48:19;;;;;;;;;;;;;;;11.38;43.75;100242.53;4810808;29;19951;-66
2022/03/22 10:50:47;;;;;;;;;;;;;;;11.25;47.33;100232.56;4813407;29;19962;-66
2022/03/22 10:53:19;;;;;;;;;;;;;;;11.21;44.02;100232.44;4811551;29;19959;-66
2022/03/22 10:55:47;;;;;;;;;;;;;;;11.36;45.36;100230.88;4816409;29;19949;-66
2022/03/22 10:58:18;;;;;;;;;;;;;;;11.49;42.60;100218.47;4816992;29;19954;-67
2022/03/22 11:00:46;;;;;;;;;;;;;;;11.25;38.61;100226.97;4811146;29;19954;-66
2022/03/22 11:03:14;;;;;;;;;;;;;;;11.75;38.99;100224.41;4814416;29;19969;-67
2022/03/22 11:05:45;;;;;;;;;;;;;;;11.63;40.65;100221.66;4827032;29;19951;-66
2022/03/22 11:08:12;;;;;;;;;;;;;;;11.95;42.45;100214.13;4826871;29;19951;-66
2022/03/22 11:10:40;;;;;;;;;;;;;;;11.94;34.86;100218.91;4825446;29;19961;-66
2022/03/22 11:13:07;;;;;;;;;;;;;;;11.86;32.92;100214.28;4825947;29;19962;-66
2022/03/22 11:15:40;;;;;;;;;;;;;;;11.40;34.99;100218.59;4817385;29;19961;-66
2022/03/22 11:18:07;;;;;;;;;;;;;;;11.47;35.89;100216.00;4808036;29;20273;-66
2022/03/22 11:20:35;;;;;;;;;;;;;;;11.68;36.98;100213.03;4795058;29;19957;-66
2022/03/22 11:23:02;;;;;;;;;;;;;;;11.83;36.67;100203.81;4817711;29;20057;-66
2022/03/22 11:25:36;;;;;;;;;;;;;;;11.90;36.52;100197.59;4819255;29;20374;-67
2022/03/22 11:28:10;;;;;;;;;;;;;;;12.22;35.29;100202.84;4815250;29;19958;-66
2022/03/22 11:30:39;;;;;;;;;;;;;;;11.78;33.71;100206.88;4815925;29;19949;-66
2022/03/22 11:35:56;;;;;;;;;;;;;;;11.78;34.47;100190.06;4818946;29;20371;-67
2022/03/22 11:38:43;;;;;;;;;;;;;;;11.71;32.65;100182.28;4811172;29;19946;-66
2022/03/22 11:44:15;;;;;;;;;;;;;;;11.72;31.14;100180.28;4825367;29;19983;-66
2022/03/22 11:46:43;;;;;;;;;;;;;;;11.72;34.34;100186.72;4817095;29;19950;-67
2022/03/22 11:49:11;;;;;;;;;;;;;;;11.95;32.84;100181.31;4816178;29;19958;-74
2022/03/22 11:51:51;;;;;;;;;;;;;;;11.83;33.83;100178.59;4832770;29;19947;-69
2022/03/22 11:54:19;;;;;;;;;;;;;;;11.87;34.72;100176.69;4809916;29;19948;-66
2022/03/22 11:56:48;;;;;;;;;;;;;;;11.68;34.92;100171.81;4808230;29;19952;-67
2022/03/22 11:59:17;;;;;;;;;;;;;;;11.66;33.79;100167.69;4807478;29;19955;-66
2022/03/22 12:01:55;;;;;;;;;;;;;;;11.81;34.61;100162.13;4807270;29;19961;-66
2022/03/22 12:04:32;;;;;;;;;;;;;;;11.72;34.17;100167.09;4808059;29;19969;-66
2022/03/22 12:06:59;;;;;;;;;;;;;;;11.90;32.34;100152.72;4811397;29;20374;-66
2022/03/22 12:09:26;;;;;;;;;;;;;;;11.80;32.39;100151.28;4807998;29;19959;-66
2022/03/22 12:11:55;;;;;;;;;;;;;;;12.06;34.49;100142.31;4807925;29;20342;-66
2022/03/22 12:14:26;;;;;;;;;;;;;;;12.09;32.30;100148.03;4808438;29;19949;-66
2022/03/22 12:16:56;;;;;;;;;;;;;;;12.01;32.86;100154.63;4808032;29;19983;-68
2022/03/22 12:19:27;;;;;;;;;;;;;;;12.22;35.62;100138.34;4807887;29;20370;-67
2022/03/22 12:21:58;;;;;;;;;;;;;;;12.30;32.91;100142.13;4807720;29;19950;-66
2022/03/22 12:24:30;;;;;;;;;;;;;;;11.98;33.23;100134.91;4810233;29;19969;-66
2022/03/22 12:27:00;;;;;;;;;;;;;;;12.03;32.38;100131.84;4811170;29;20362;-67
2022/03/22 12:29:28;;;;;;;;;;;;;;;11.93;31.96;100127.59;4811059;29;19952;-66
2022/03/22 12:31:56;;;;;;;;;;;;;;;11.72;32.27;100138.25;4811296;29;19953;-66
2022/03/22 12:34:24;;;;;;;;;;;;;;;11.90;33.54;100130.31;4811072;29;20253;-66
2022/03/22 12:36:52;;;;;;;;;;;;;;;11.82;32.29;100121.72;4811271;29;20278;-67
2022/03/22 12:39:19;;;;;;;;;;;;;;;11.44;31.64;100129.91;4810585;29;19966;-70
2022/03/22 12:41:48;;;;;;;;;;;;;;;11.58;32.91;100118.25;4811227;29;19962;-70
2022/03/22 12:44:15;;;;;;;;;;;;;;;11.90;33.31;100114.31;4828453;29;19982;-70
2022/03/22 12:46:43;;;;;;;;;;;;;;;12.18;31.95;100114.16;4829034;29;19980;-70
2022/03/22 12:49:10;;;;;;;;;;;;;;;12.07;33.29;100113.91;4829640;29;19952;-70
2022/03/22 12:51:37;;;;;;;;;;;;;;;12.14;31.21;100104.84;4828861;29;19949;-70
2022/03/22 12:54:06;;;;;;;;;;;;;;;12.03;31.68;100110.19;4829737;29;19978;-70
2022/03/22 12:56:34;;;;;;;;;;;;;;;11.95;32.78;100107.59;4829734;29;19964;-70
2022/03/22 12:59:19;;;;;;;;;;;;;;;11.86;32.11;100102.16;4819151;29;20254;-70
2022/03/22 13:01:51;;;;;;;;;;;;;;;11.97;32.83;100103.25;4814616;29;19949;-70
2022/03/22 13:04:22;;;;;;;;;;;;;;;12.04;33.53;100108.22;4811174;29;19973;-69
2022/03/22 13:06:54;;;;;;;;;;;;;;;11.83;33.13;100098.09;4810048;29;19966;-70
2022/03/22 13:12:08;;;;;;;;;;;;;;;12.13;33.28;100097.63;4810363;29;19950;-70
2022/03/22 13:17:22;;;;;;;;;;;;;;;12.09;34.49;100086.31;4809869;29;19981;-70
2022/03/22 13:19:50;;;;;;;;;;;;;;;12.08;33.49;100081.09;4810924;29;19953;-70
2022/03/22 13:22:19;;;;;;;;;;;;;;;11.98;34.40;100076.88;4809772;29;19961;-70
2022/03/22 13:24:46;;;;;;;;;;;;;;;12.05;32.75;100077.03;4810092;29;19982;-70
2022/03/22 13:27:13;;;;;;;;;;;;;;;12.20;31.46;100073.34;4810778;29;19952;-70
2022/03/22 13:29:42;;;;;;;;;;;;;;;12.28;32.81;100086.38;4810065;29;20375;-70
2022/03/22 13:32:11;;;;;;;;;;;;;;;11.93;32.49;100085.56;4810700;29;19955;-70
2022/03/22 13:34:47;;;;;;;;;;;;;;;12.20;32.31;100073.34;4809612;29;19961;-71
2022/03/22 13:37:15;;;;;;;;;;;;;;;12.27;31.32;100062.31;4809782;29;19959;-70
2022/03/22 13:39:50;;;;;;;;;;;;;;;12.17;32.01;100064.88;4794270;29;19953;-70
2022/03/22 13:42:18;;;;;;;;;;;;;;;11.93;31.45;100060.31;4809911;29;19950;-70
2022/03/22 13:44:50;;;;;;;;;;;;;;;11.93;31.13;100060.31;4809931;29;20299;-70
2022/03/22 13:47:29;;;;;;;;;;;;;;;12.05;32.03;100053.78;4810280;29;19948;-70
2022/03/22 13:49:58;;;;;;;;;;;;;;;12.10;32.28;100051.50;4819465;29;19959;-70
2022/03/22 13:52:27;;;;;;;;;;;;;;;11.90;32.76;100051.81;4827789;29;19951;-70
2022/03/22 13:54:55;;;;;;;;;;;;;;;12.03;31.88;100051.31;4827615;29;19961;-70
2022/03/22 13:57:29;;;;;;;;;;;;;;;12.13;32.93;100045.16;4827789;29;20245;-70
2022/03/22 14:00:00;;;;;;;;;;;;;;;11.88;32.40;100037.34;4826581;29;20413;-70
2022/03/22 14:02:27;;;;;;;;;;;;;;;11.96;32.44;100042.75;4820842;29;19961;-70
2022/03/22 14:04:55;;;;;;;;;;;;;;;11.85;31.17;100041.69;4813177;29;20361;-70
2022/03/22 14:07:22;;;;;;;;;;;;;;;11.90;32.51;100041.41;4813275;29;20272;-70
2022/03/22 14:09:50;;;;;;;;;;;;;;;12.05;32.28;100046.19;4826137;29;19954;-70
2022/03/22 14:12:17;;;;;;;;;;;;;;;11.97;30.82;100037.97;4822077;29;20030;-70
2022/03/22 14:14:45;;;;;;;;;;;;;;;12.03;31.40;100028.88;4822850;29;19964;-70
2022/03/22 14:17:13;;;;;;;;;;;;;;;12.03;31.51;100022.50;4816598;29;20051;-70
2022/03/22 14:19:40;;;;;;;;;;;;;;;11.99;32.07;100030.81;4817023;29;19953;-70
2022/03/22 14:22:07;;;;;;;;;;;;;;;11.92;29.66;100030.66;4819417;29;19975;-71
2022/03/22 14:24:35;;;;;;;;;;;;;;;12.07;29.50;100026.19;4816224;29;19973;-70
2022/03/22 14:27:02;;;;;;;;;;;;;;;12.23;30.94;100024.94;4813922;29;20347;-69
2022/03/22 14:29:29;;;;;;;;;;;;;;;12.15;31.61;100034.38;4822463;29;19949;-70
2022/03/22 14:31:57;;;;;;;;;;;;;;;11.98;31.98;100025.56;4821271;29;19954;-70
2022/03/22 14:37:10;;;;;;;;;;;;;;;11.68;30.86;100023.28;4815086;29;19949;-70
2022/03/22 14:39:38;;;;;;;;;;;;;;;11.77;31.81;100021.09;4816829;29;19957;-70
2022/03/22 14:42:06;;;;;;;;;;;;;;;11.90;31.24;100027.41;4813455;29;19950;-70
2022/03/22 14:44:34;;;;;;;;;;;;;;;11.64;32.10;100019.53;4824446;29;19976;-70
2022/03/22 14:47:04;;;;;;;;;;;;;;;11.56;32.01;100014.13;4822279;29;19951;-70
2022/03/22 14:49:32;;;;;;;;;;;;;;;11.56;33.82;100009.34;4809711;29;19950;-70
2022/03/22 14:54:50;;;;;;;;;;;;;;;11.70;32.77;100004.13;4779044;29;19953;-70
2022/03/22 15:00:04;;;;;;;;;;;;;;;11.80;30.12;100003.56;4822378;29;19947;-70
2022/03/22 15:02:31;;;;;;;;;;;;;;;11.81;30.86;99991.16;4814156;29;20252;-70
2022/03/22 15:04:59;;;;;;;;;;;;;;;11.75;31.57;100005.81;4821151;29;19963;-70
2022/03/22 15:07:26;;;;;;;;;;;;;;;11.73;31.01;100008.19;4816975;29;20011;-70
2022/03/22 15:09:54;;;;;;;;;;;;;;;11.81;31.04;99991.16;4814770;29;19953;-70
2022/03/22 15:12:21;;;;;;;;;;;;;;;11.69;32.09;99991.25;4812680;29;19980;-70
2022/03/22 15:14:49;;;;;;;;;;;;;;;11.75;31.80;99978.59;4819476;29;20259;-70
2022/03/22 15:17:16;;;;;;;;;;;;;;;11.69;31.07;99980.06;4809192;29;19975;-70
2022/03/22 15:19:43;;;;;;;;;;;;;;;11.85;31.37;99988.44;4808927;29;19957;-70
2022/03/22 15:22:10;;;;;;;;;;;;;;;11.69;30.41;99982.84;4820732;29;19949;-70
2022/03/22 15:24:39;;;;;;;;;;;;;;;11.71;30.68;99982.50;4809946;29;19974;-70
2022/03/22 15:27:09;;;;;;;;;;;;;;;11.62;30.65;99985.47;4808971;29;19954;-70
2022/03/22 15:29:36;;;;;;;;;;;;;;;11.66;30.30;99974.34;4808663;29;19949;-70
2022/03/22 15:32:19;;;;;;;;;;;;;;;11.58;30.91;99975.34;4813480;29;20001;-70
2022/03/22 15:34:47;;;;;;;;;;;;;;;11.79;31.22;99976.69;4811280;29;19951;-70
2022/03/22 15:37:14;;;;;;;;;;;;;;;11.64;30.11;99982.31;4815925;29;20425;-71
2022/03/22 15:39:41;;;;;;;;;;;;;;;11.53;30.98;99972.81;4812658;29;19951;-71
2022/03/22 15:42:09;;;;;;;;;;;;;;;11.58;30.72;99967.75;4808561;29;19952;-72
2022/03/22 15:44:36;;;;;;;;;;;;;;;11.51;31.21;99964.78;4808270;29;20218;-72
2022/03/22 15:47:04;;;;;;;;;;;;;;;11.46;31.63;99959.47;4811684;29;20360;-70
2022/03/22 15:49:31;;;;;;;;;;;;;;;11.57;32.54;99959.69;4809745;29;20365;-71
2022/03/22 15:51:59;;;;;;;;;;;;;;;11.57;31.86;99960.53;4816481;29;19957;-69
2022/03/22 15:54:26;;;;;;;;;;;;;;;11.45;31.59;99963.44;4814332;29;19948;-73
2022/03/22 15:56:53;;;;;;;;;;;;;;;11.57;31.76;99954.09;4814835;29;19977;-68
2022/03/22 15:59:21;;;;;;;;;;;;;;;11.45;30.88;99951.41;4810807;29;20395;-68
2022/03/22 16:01:49;;;;;;;;;;;;;;;11.49;30.94;99953.13;4811362;29;19950;-68
2022/03/22 16:04:16;;;;;;;;;;;;;;;11.46;31.15;99948.25;4810829;29;19962;-66
2022/03/22 16:06:43;;;;;;;;;;;;;;;11.43;30.64;99953.78;4810456;29;20242;-66
2022/03/22 16:09:13;;;;;;;;;;;;;;;11.26;30.96;99945.75;4825150;29;19956;-67
2022/03/22 16:11:40;;;;;;;;;;;;;;;11.24;30.37;99946.13;4828887;29;19952;-68
2022/03/22 16:14:10;;;;;;;;;;;;;;;11.31;30.42;99943.50;4821457;29;19961;-67
2022/03/22 16:16:37;;;;;;;;;;;;;;;11.27;31.40;99939.81;4827793;29;20000;-67
2022/03/22 16:19:05;;;;;;;;;;;;;;;11.25;30.75;99950.53;4815615;29;19959;-66
2022/03/22 16:21:32;;;;;;;;;;;;;;;11.19;31.40;99947.22;4816380;29;19951;-68
2022/03/22 16:24:00;;;;;;;;;;;;;;;11.09;31.22;99947.75;4813512;29;20381;-67
2022/03/22 16:26:29;;;;;;;;;;;;;;;11.23;31.25;99942.50;4817734;29;20390;-67
2022/03/22 16:28:56;;;;;;;;;;;;;;;11.13;31.69;99940.25;4812888;29;19959;-67
2022/03/22 16:31:26;;;;;;;;;;;;;;;11.13;32.11;99947.81;4816452;29;20331;-70
2022/03/22 16:36:49;;;;;;;;;;;;;;;11.01;32.51;99942.31;4811079;29;20245;-67
2022/03/22 16:39:26;;;;;;;;;;;;;;;11.01;31.72;99948.72;4810764;29;19958;-71
2022/03/22 16:42:01;;;;;;;;;;;;;;;10.92;32.24;99942.50;4811169;29;19954;-70
2022/03/22 16:44:32;;;;;;;;;;;;;;;10.83;31.90;99935.47;4820154;29;19953;-71
2022/03/22 16:47:00;;;;;;;;;;;;;;;10.93;31.43;99935.72;4813213;29;19973;-71
2022/03/22 16:49:30;;;;;;;;;;;;;;;10.84;31.32;99946.28;4809579;29;19983;-71
2022/03/22 16:51:58;;;;;;;;;;;;;;;10.81;31.97;99944.19;4810057;29;20406;-70
2022/03/22 16:54:26;;;;;;;;;;;;;;;10.87;31.32;99942.78;4814492;29;19973;-68
2022/03/22 16:56:54;;;;;;;;;;;;;;;10.79;31.95;99946.56;4817471;29;19951;-68
2022/03/22 16:59:22;;;;;;;;;;;;;;;10.83;31.50;99952.25;4826936;29;19959;-69
2022/03/22 17:01:50;;;;;;;;;;;;;;;10.87;31.62;99945.56;4813301;29;19959;-68
2022/03/22 17:04:17;;;;;;;;;;;;;;;10.79;32.07;99948.53;4816090;29;19951;-68
2022/03/22 17:06:45;;;;;;;;;;;;;;;10.73;32.05;99953.59;4819802;29;20270;-68
2022/03/22 17:09:12;;;;;;;;;;;;;;;10.67;32.35;99949.41;4819470;29;20329;-69
2022/03/22 17:11:39;;;;;;;;;;;;;;;10.58;32.17;99943.19;4815328;29;20759;-69
2022/03/22 17:14:07;;;;;;;;;;;;;;;10.50;32.79;99956.16;4824459;29;19963;-69
2022/03/22 17:16:35;;;;;;;;;;;;;;;10.51;32.25;99946.59;4813740;29;20495;-68
2022/03/22 17:19:04;;;;;;;;;;;;;;;10.39;32.70;99951.44;4812622;29;19949;-67
2022/03/22 17:21:34;;;;;;;;;;;;;;;10.29;32.90;99947.19;4810217;29;19949;-67
2022/03/22 17:24:03;;;;;;;;;;;;;;;10.20;33.19;99948.47;4815322;29;19948;-67
2022/03/22 17:26:30;;;;;;;;;;;;;;;10.17;33.65;99952.78;4827577;29;19980;-67
2022/03/22 17:28:58;;;;;;;;;;;;;;;10.07;33.65;99953.28;4821097;29;19952;-67
2022/03/22 17:31:26;;;;;;;;;;;;;;;9.99;33.99;99959.81;4813498;29;19962;-67
2022/03/22 17:33:54;;;;;;;;;;;;;;;9.93;34.17;99957.66;4809468;29;19956;-67
2022/03/22 17:36:25;;;;;;;;;;;;;;;9.81;35.06;99952.88;4809505;29;19952;-67
2022/03/22 17:38:54;;;;;;;;;;;;;;;9.68;34.32;99951.28;4808746;29;19980;-68
2022/03/22 17:41:22;;;;;;;;;;;;;;;9.59;34.65;99958.97;4809081;29;19952;-68
2022/03/22 17:43:50;;;;;;;;;;;;;;;9.56;34.86;99959.69;4812990;29;19958;-68
2022/03/22 17:46:17;;;;;;;;;;;;;;;9.51;34.87;99965.50;4822016;29;19972;-67
2022/03/22 17:48:44;;;;;;;;;;;;;;;9.47;35.68;99965.38;4819469;29;20718;-67
2022/03/22 17:51:12;;;;;;;;;;;;;;;9.40;34.77;99962.38;4821200;29;20245;-67
2022/03/22 17:53:39;;;;;;;;;;;;;;;9.28;35.31;99965.16;4814429;29;19951;-67
2022/03/22 17:56:07;;;;;;;;;;;;;;;9.25;35.31;99972.25;4816174;29;19951;-67
2022/03/22 17:58:34;;;;;;;;;;;;;;;9.23;35.46;99965.41;4818652;29;19963;-67
2022/03/22 18:01:02;;;;;;;;;;;;;;;9.26;34.90;99961.91;4809843;29;20225;-67
2022/03/22 18:03:34;;;;;;;;;;;;;;;9.20;34.99;99963.28;4819247;29;19998;-67
2022/03/22 18:06:08;;;;;;;;;;;;;;;9.17;35.46;99953.63;4819023;29;19972;-67
2022/03/22 18:08:36;;;;;;;;;;;;;;;9.13;35.32;99958.31;4812351;29;19955;-67
2022/03/22 18:14:09;;;;;;;;;;;;;;;9.16;34.86;99967.97;4756256;30;20478;-67
2022/03/22 18:16:37;;;;;;;;;;;;;;;9.25;34.58;99972.25;4756260;30;19973;-67
2022/03/22 18:19:05;;;;;;;;;;;;;;;9.22;34.73;99967.38;4786507;29;19953;-67
2022/03/22 18:21:33;;;;;;;;;;;;;;;9.23;34.64;99970.97;4812431;29;19953;-67
2022/03/22 18:24:00;;;;;;;;;;;;;;;9.24;35.34;99972.63;4817293;29;19964;-68
2022/03/22 18:26:27;;;;;;;;;;;;;;;9.21;35.59;99970.53;4820234;29;20274;-67
2022/03/22 18:28:55;;;;;;;;;;;;;;;9.19;35.07;99970.06;4812830;29;19962;-68
2022/03/22 18:31:24;;;;;;;;;;;;;;;9.19;35.04;99973.63;4810937;29;19958;-67
2022/03/22 18:33:52;;;;;;;;;;;;;;;9.20;34.82;99971.66;4820217;29;19959;-67
2022/03/22 18:36:20;;;;;;;;;;;;;;;9.20;35.29;99966.09;4817971;29;19959;-67
2022/03/22 18:38:48;;;;;;;;;;;;;;;9.19;35.21;99970.06;4823008;29;19952;-68
2022/03/22 18:41:15;;;;;;;;;;;;;;;9.19;35.20;99968.06;4814764;29;20009;-67
2022/03/22 18:43:42;;;;;;;;;;;;;;;9.17;35.51;99973.19;4811435;29;19971;-68
2022/03/22 18:46:10;;;;;;;;;;;;;;;9.18;34.97;99974.00;4810915;29;19982;-68
2022/03/22 18:48:37;;;;;;;;;;;;;;;9.14;35.40;99979.47;4816816;29;19950;-67
2022/03/22 18:51:04;;;;;;;;;;;;;;;9.13;35.53;99974.22;4820792;29;19960;-68
2022/03/22 18:53:32;;;;;;;;;;;;;;;9.10;36.22;99975.72;4822558;29;19949;-68
2022/03/22 18:55:59;;;;;;;;;;;;;;;9.09;35.73;99982.50;4815370;29;19958;-68
2022/03/22 18:58:26;;;;;;;;;;;;;;;9.09;35.89;99984.47;4817037;29;19953;-68
2022/03/22 19:00:54;;;;;;;;;;;;;;;9.11;35.62;99977.38;4810940;29;19950;-68
2022/03/22 19:03:21;;;;;;;;;;;;;;;9.07;36.32;99973.63;4819076;29;19961;-67
2022/03/22 19:05:49;;;;;;;;;;;;;;;9.11;35.95;99980.16;4827051;29;19949;-67
2022/03/22 19:08:17;;;;;;;;;;;;;;;9.15;35.84;99972.72;4844076;29;19970;-67
2022/03/22 19:10:45;;;;;;;;;;;;;;;9.16;35.89;99967.97;4828000;29;20333;-68
2022/03/22 19:13:12;;;;;;;;;;;;;;;9.18;35.54;99976.78;4808880;29;20362;-67
2022/03/22 19:15:39;;;;;;;;;;;;;;;9.13;35.36;99969.47;4808259;29;19958;-67
2022/03/22 19:18:07;;;;;;;;;;;;;;;9.15;35.12;99971.91;4808915;29;20373;-68
2022/03/22 19:20:34;;;;;;;;;;;;;;;9.19;35.32;99976.44;4820143;29;19951;-67
2022/03/22 19:23:02;;;;;;;;;;;;;;;9.16;34.96;99974.34;4814845;29;19954;-67
2022/03/22 19:25:30;;;;;;;;;;;;;;;9.12;35.21;99981.00;4811175;29;20710;-67
2022/03/22 19:27:58;;;;;;;;;;;;;;;9.08;35.34;99978.06;4824207;29;19972;-68
2022/03/22 19:30:26;;;;;;;;;;;;;;;9.02;35.65;99979.44;4834413;29;20341;-68
2022/03/22 19:32:58;;;;;;;;;;;;;;;8.97;35.42;99984.44;4817893;29;19956;-67
2022/03/22 19:35:29;;;;;;;;;;;;;;;8.90;35.87;99979.41;4811604;29;19947;-67
2022/03/22 19:37:57;;;;;;;;;;;;;;;8.84;35.54;99980.00;4818870;29;19959;-67